Time;durP1;ratioP1;P1;durP2;ratioP2;P2;SDS_P1;SDS_P2;PMS_P1;PMS_P2;Temp;Humidity;BMP_temperature;BMP_pressure;BME280_temperature;BME280_humidity;BME280_pressure;Samples;Min_cycle;Max_cycle;Signal;HPM_P1;HPM_P2
2022/11/12 00:00:07;;;;;;;22.93;2.80;;;;;;;4.88;100.00;97362.94;5099165;28;25009;-72
2022/11/12 00:02:33;;;;;;;12.30;2.53;;;;;;;5.00;100.00;97365.31;5095921;28;24434;-73
2022/11/12 00:05:00;;;;;;;39.58;3.55;;;;;;;4.89;100.00;97358.66;5094336;28;24804;-73
2022/11/12 00:07:28;;;;;;;14.77;2.72;;;;;;;4.78;100.00;97356.25;5101207;28;24436;-73
2022/11/12 00:09:54;;;;;;;79.85;4.78;;;;;;;4.66;100.00;97357.28;5101208;28;25003;-72
2022/11/12 00:12:21;;;;;;;3.33;2.05;;;;;;;4.79;100.00;97352.81;5103634;28;24426;-71
2022/11/12 00:14:47;;;;;;;6.35;2.47;;;;;;;4.90;100.00;97345.81;5102182;28;24808;-71
2022/11/12 00:17:14;;;;;;;31.83;3.50;;;;;;;4.85;100.00;97345.00;5083096;28;24434;-71
2022/11/12 00:19:40;;;;;;;88.68;5.30;;;;;;;4.69;100.00;97338.44;5094203;28;24827;-71
2022/11/12 00:22:07;;;;;;;65.30;4.32;;;;;;;4.68;100.00;97341.88;5102664;28;24437;-71
2022/11/12 00:24:34;;;;;;;14.18;3.55;;;;;;;4.69;100.00;97339.25;5096222;28;25007;-71
2022/11/12 00:27:01;;;;;;;16.10;9.85;;;;;;;4.81;100.00;97345.94;5100952;28;24440;-71
2022/11/12 00:29:27;;;;;;;52.33;4.80;;;;;;;4.59;100.00;97346.22;5103635;28;24440;-71
2022/11/12 00:31:54;;;;;;;59.60;5.25;;;;;;;4.49;100.00;97349.81;5102277;28;25017;-72
2022/11/12 00:34:20;;;;;;;61.00;6.50;;;;;;;4.52;100.00;97344.63;5096286;28;24471;-72
2022/11/12 00:36:47;;;;;;;96.43;8.43;;;;;;;4.33;100.00;97340.63;5100832;28;24440;-72
2022/11/12 00:39:13;;;;;;;15.07;5.45;;;;;;;4.45;100.00;97337.03;5106804;28;24444;-72
2022/11/12 00:41:41;;;;;;;16.63;3.90;;;;;;;4.64;100.00;97340.22;5102993;28;25424;-72
2022/11/12 00:44:08;;;;;;;104.75;5.15;;;;;;;4.24;100.00;97339.03;5098722;28;24449;-71
2022/11/12 00:46:34;;;;;;;75.13;5.20;;;;;;;4.20;100.00;97337.38;5099142;28;24441;-71
2022/11/12 00:49:01;;;;;;;17.75;2.65;;;;;;;4.29;100.00;97336.41;5103097;28;24441;-72
2022/11/12 00:51:27;;;;;;;28.13;3.42;;;;;;;4.28;100.00;97342.41;5104311;28;24450;-73
2022/11/12 00:53:54;;;;;;;17.52;2.60;;;;;;;4.37;100.00;97344.84;5097728;28;24434;-73
2022/11/12 00:56:20;;;;;;;47.15;3.42;;;;;;;4.16;100.00;97343.41;5101233;28;24426;-72
2022/11/12 00:58:48;;;;;;;35.95;3.97;;;;;;;4.08;100.00;97343.50;5099743;28;25017;-73
2022/11/12 01:01:16;;;;;;;42.72;5.22;;;;;;;4.04;100.00;97336.72;5083369;28;24549;-72
2022/11/12 01:03:43;;;;;;;36.70;9.23;;;;;;;4.03;100.00;97334.16;5099287;28;24423;-72
2022/11/12 01:06:12;;;;;;;68.88;4.05;;;;;;;3.93;100.00;97353.06;5101223;28;24971;-71
2022/11/12 01:08:39;;;;;;;56.92;4.13;;;;;;;3.81;100.00;97343.81;5103266;28;24446;-72
2022/11/12 01:11:08;;;;;;;54.92;4.40;;;;;;;3.74;100.00;97337.88;5101901;28;24454;-72
2022/11/12 01:13:35;;;;;;;5.87;4.33;;;;;;;3.93;100.00;97333.44;5095582;28;24434;-72
2022/11/12 01:16:06;;;;;;;99.85;5.40;;;;;;;3.80;100.00;97342.13;5101612;28;25058;-72
2022/11/12 01:18:33;;;;;;;18.30;3.67;;;;;;;3.87;100.00;97339.47;5096426;28;24431;-72
2022/11/12 01:21:00;;;;;;;52.70;7.53;;;;;;;3.71;100.00;97344.75;5092391;28;24431;-71
2022/11/12 01:23:27;;;;;;;19.60;2.97;;;;;;;3.66;100.00;97338.84;5087980;28;24484;-72
2022/11/12 01:25:54;;;;;;;33.92;3.00;;;;;;;3.63;100.00;97334.59;5101286;28;24441;-72
2022/11/12 01:28:20;;;;;;;1.88;1.77;;;;;;;3.81;100.00;97339.53;5099341;28;24434;-72
2022/11/12 01:30:47;;;;;;;17.08;3.00;;;;;;;3.92;100.00;97336.84;5089816;28;24458;-72
2022/11/12 01:33:14;;;;;;;4.50;3.40;;;;;;;4.02;100.00;97330.75;5100654;28;24900;-71
2022/11/12 01:35:41;;;;;;;48.45;10.07;;;;;;;3.92;100.00;97324.03;5098775;28;24438;-72
2022/11/12 01:38:07;;;;;;;60.30;6.95;;;;;;;3.83;100.00;97322.44;5101009;28;24434;-72
2022/11/12 01:40:34;;;;;;;20.77;4.75;;;;;;;3.86;100.00;97319.00;5098900;28;24441;-72
2022/11/12 01:43:00;;;;;;;13.23;2.85;;;;;;;3.98;100.00;97315.44;5092879;28;25010;-72
2022/11/12 01:45:27;;;;;;;29.05;5.10;;;;;;;3.93;100.00;97315.50;5091686;28;24440;-72
2022/11/12 01:47:54;;;;;;;4.85;3.92;;;;;;;4.01;100.00;97305.97;5096790;28;24488;-71
2022/11/12 01:50:27;;;;;;;18.77;4.10;;;;;;;4.01;100.00;97302.56;5106015;28;24461;-72
2022/11/12 01:52:59;;;;;;;19.13;3.80;;;;;;;3.97;100.00;97304.31;5101582;28;24448;-71
2022/11/12 01:55:30;;;;;;;6.30;2.80;;;;;;;4.11;100.00;97297.28;5103755;28;24438;-71
2022/11/12 01:58:02;;;;;;;49.43;3.60;;;;;;;3.80;100.00;97299.38;5097927;28;24430;-72
2022/11/12 02:00:28;;;;;;;3.92;1.90;;;;;;;3.78;100.00;97288.31;5101956;28;24442;-72
2022/11/12 02:02:59;;;;;;;8.18;2.40;;;;;;;3.91;100.00;97293.28;5099494;28;24799;-71
2022/11/12 02:05:30;;;;;;;35.73;3.57;;;;;;;4.00;100.00;97286.31;5093075;28;24519;-71
2022/11/12 02:07:59;;;;;;;4.30;2.17;;;;;;;4.04;100.00;97288.00;5092007;28;24431;-71
2022/11/12 02:10:26;;;;;;;37.10;3.75;;;;;;;3.89;100.00;97288.16;5104976;28;24458;-71
2022/11/12 02:15:40;;;;;;;47.83;5.28;;;;;;;3.68;100.00;97286.72;5104359;28;24440;-72
2022/11/12 02:18:07;;;;;;;31.58;11.77;;;;;;;3.74;100.00;97278.94;5099202;28;24444;-72
2022/11/12 02:20:36;;;;;;;57.63;4.72;;;;;;;3.58;100.00;97278.28;5096974;28;24438;-72
2022/11/12 02:23:05;;;;;;;49.45;7.43;;;;;;;3.49;100.00;97275.84;5098690;28;24430;-72
2022/11/12 02:25:33;;;;;;;7.88;2.40;;;;;;;3.51;100.00;97275.81;5093841;28;24537;-72
2022/11/12 02:28:01;;;;;;;32.47;3.45;;;;;;;3.37;100.00;97271.69;5097196;28;24434;-72
2022/11/12 02:30:33;;;;;;;39.10;3.00;;;;;;;3.43;100.00;97272.50;5101615;28;24480;-72
2022/11/12 02:33:00;;;;;;;32.33;5.97;;;;;;;3.38;100.00;97275.09;5100338;28;24430;-72
2022/11/12 02:35:26;;;;;;;3.55;2.75;;;;;;;3.53;100.00;97269.81;5092951;28;24812;-72
2022/11/12 02:37:53;;;;;;;13.90;3.35;;;;;;;3.61;100.00;97262.88;5094994;28;24433;-72
2022/11/12 02:40:21;;;;;;;18.92;2.65;;;;;;;3.81;100.00;97274.59;5100565;28;24483;-72
2022/11/12 02:42:48;;;;;;;14.93;2.15;;;;;;;3.79;100.00;97273.78;5100347;28;24437;-72
2022/11/12 02:45:15;;;;;;;2.50;2.00;;;;;;;3.85;100.00;97271.13;5093847;28;25256;-72
2022/11/12 02:47:42;;;;;;;7.63;2.03;;;;;;;3.90;100.00;97271.09;5100074;28;24979;-72
2022/11/12 02:50:09;;;;;;;7.38;4.13;;;;;;;3.93;100.00;97265.91;5090588;28;24453;-72
2022/11/12 02:52:36;;;;;;;5.53;3.03;;;;;;;3.94;100.00;97271.03;5088367;28;24808;-72
2022/11/12 02:55:02;;;;;;;40.15;4.28;;;;;;;3.69;100.00;97262.78;5093041;28;25261;-72
2022/11/12 02:57:30;;;;;;;69.97;4.90;;;;;;;3.52;100.00;97262.13;5097724;28;24446;-72
2022/11/12 02:59:57;;;;;;;38.85;5.20;;;;;;;3.48;100.00;97270.72;5100314;28;25011;-72
2022/11/12 03:02:23;;;;;;;56.63;4.47;;;;;;;3.31;100.00;97265.78;5090850;28;24434;-72
2022/11/12 03:04:50;;;;;;;71.22;4.70;;;;;;;3.21;100.00;97270.13;5102675;28;24430;-72
2022/11/12 03:07:16;;;;;;;55.10;3.78;;;;;;;3.22;100.00;97276.09;5091163;28;24448;-71
2022/11/12 03:09:43;;;;;;;63.38;3.90;;;;;;;3.09;100.00;97266.00;5088283;28;24984;-71
2022/11/12 03:12:09;;;;;;;39.10;2.70;;;;;;;3.11;100.00;97274.50;5095241;28;24984;-72
2022/11/12 03:14:37;;;;;;;57.22;3.40;;;;;;;3.08;100.00;97273.69;5089770;28;24444;-72
2022/11/12 03:17:04;;;;;;;59.30;3.28;;;;;;;3.10;100.00;97277.06;5103115;28;24437;-73
2022/11/12 03:19:30;;;;;;;6.07;1.50;;;;;;;3.19;100.00;97276.13;5100067;28;24453;-72
2022/11/12 03:21:57;;;;;;;28.08;2.78;;;;;;;3.20;100.00;97275.28;5098218;28;24432;-72
2022/11/12 03:24:23;;;;;;;28.75;2.42;;;;;;;3.24;100.00;97265.00;5096143;28;24449;-71
2022/11/12 03:26:50;;;;;;;47.65;3.08;;;;;;;3.16;100.00;97269.34;5098434;28;24433;-72
2022/11/12 03:29:17;;;;;;;71.47;4.45;;;;;;;2.97;100.00;97270.38;5089206;28;24448;-72
2022/11/12 03:31:44;;;;;;;37.20;2.60;;;;;;;3.08;100.00;97260.91;5097278;28;24446;-72
2022/11/12 03:34:11;;;;;;;6.47;1.88;;;;;;;3.22;100.00;97264.16;5098151;28;24994;-72
2022/11/12 03:36:38;;;;;;;26.77;2.00;;;;;;;3.12;100.00;97260.84;5095732;28;24437;-71
2022/11/12 03:39:04;;;;;;;21.00;2.00;;;;;;;3.31;100.00;97260.66;5105847;28;24445;-72
2022/11/12 03:41:31;;;;;;;43.42;2.42;;;;;;;3.36;100.00;97269.13;5097888;28;25017;-72
2022/11/12 03:43:57;;;;;;;34.60;2.58;;;;;;;3.37;100.00;97263.13;5099721;28;24430;-72
2022/11/12 03:46:24;;;;;;;50.70;2.63;;;;;;;3.38;100.00;97262.31;5100341;28;24437;-72
2022/11/12 03:48:52;;;;;;;5.75;1.77;;;;;;;3.47;100.00;97262.19;5097398;28;24436;-72
2022/11/12 03:51:20;;;;;;;7.13;1.60;;;;;;;3.55;100.00;97265.50;5091593;28;24557;-72
2022/11/12 03:53:46;;;;;;;30.23;2.10;;;;;;;3.59;100.00;97277.41;5091087;28;24545;-72
2022/11/12 03:56:13;;;;;;;44.85;2.35;;;;;;;3.56;100.00;97272.34;5104176;28;24854;-72
2022/11/12 03:58:39;;;;;;;28.08;1.98;;;;;;;3.49;100.00;97275.00;5106840;28;24436;-72
2022/11/12 04:01:06;;;;;;;21.73;1.63;;;;;;;3.57;100.00;97275.75;5095216;28;24986;-72
2022/11/12 04:03:32;;;;;;;47.47;2.60;;;;;;;3.47;100.00;97280.13;5104050;28;25010;-72
2022/11/12 04:08:44;;;;;;;15.85;1.80;;;;;;;3.43;100.00;97270.78;5102490;28;24621;-72
2022/11/12 04:11:13;;;;;;;11.85;1.83;;;;;;;3.43;100.00;97269.94;5096394;28;24465;-72
2022/11/12 04:13:41;;;;;;;26.15;2.03;;;;;;;3.20;100.00;97268.44;5098382;28;24799;-71
2022/11/12 04:21:53;;;;;;;24.38;7.28;;;;;;;3.04;100.00;97272.00;5103285;28;24487;-72
2022/11/12 04:27:09;;;;;;;35.47;10.65;;;;;;;2.75;100.00;97265.44;5095408;28;24520;-72
2022/11/12 04:32:20;;;;;;;39.25;11.27;;;;;;;2.85;100.00;97263.63;5101639;28;24487;-72
2022/11/12 04:34:46;;;;;;;30.45;7.57;;;;;;;2.63;100.00;97261.28;5100048;28;24441;-71
2022/11/12 04:37:14;;;;;;;7.57;3.60;;;;;;;2.87;100.00;97273.00;5099516;28;24437;-72
2022/11/12 04:39:41;;;;;;;4.40;2.60;;;;;;;3.01;100.00;97265.22;5100095;28;24471;-72
2022/11/12 04:45:02;;;;;;;7.82;2.15;;;;;;;3.07;100.00;97266.84;5101680;28;24433;-72
2022/11/12 04:47:33;;;;;;;27.23;2.75;;;;;;;3.09;100.00;97267.72;5093924;28;24437;-72
2022/11/12 04:50:00;;;;;;;4.97;2.90;;;;;;;3.13;100.00;97264.25;5100564;28;24445;-72
2022/11/12 04:52:28;;;;;;;3.20;2.25;;;;;;;3.20;100.00;97270.16;5100752;28;24456;-72
2022/11/12 04:54:55;;;;;;;5.00;2.90;;;;;;;3.26;100.00;97265.81;5097826;28;24426;-72
2022/11/12 04:57:22;;;;;;;8.83;3.30;;;;;;;3.29;100.00;97264.94;5100026;28;24438;-72
2022/11/12 04:59:48;;;;;;;20.05;4.32;;;;;;;3.09;100.00;97260.03;5094682;28;24442;-72
2022/11/12 05:02:16;;;;;;;20.88;6.35;;;;;;;3.02;100.00;97255.81;5096965;28;24428;-72
2022/11/12 05:04:42;;;;;;;28.63;9.07;;;;;;;2.79;100.00;97248.34;5100902;28;25026;-71
2022/11/12 05:07:10;;;;;;;10.02;4.15;;;;;;;2.88;100.00;97255.94;5092974;28;24436;-71
2022/11/12 05:09:38;;;;;;;3.58;2.00;;;;;;;2.90;100.00;97257.63;5106425;28;24437;-71
2022/11/12 05:12:05;;;;;;;2.50;1.53;;;;;;;3.07;100.00;97260.03;5106985;28;24445;-71
2022/11/12 05:14:31;;;;;;;22.60;1.50;;;;;;;3.11;100.00;97260.84;5099394;28;24429;-72
2022/11/12 05:16:58;;;;;;;10.10;1.70;;;;;;;3.11;100.00;97264.25;5093648;28;24995;-71
2022/11/12 05:19:25;;;;;;;2.70;1.33;;;;;;;3.26;100.00;97268.38;5106702;28;24811;-71
2022/11/12 05:22:07;;;;;;;13.07;1.67;;;;;;;3.15;100.00;97265.06;5101083;28;24990;-71
2022/11/12 05:24:36;;;;;;;15.48;1.75;;;;;;;3.12;100.00;97265.13;5087727;28;24486;-71
2022/11/12 05:27:06;;;;;;;9.65;1.40;;;;;;;3.11;100.00;97259.13;5096855;28;24437;-72
2022/11/12 05:29:32;;;;;;;15.43;1.92;;;;;;;2.98;100.00;97260.13;5102173;28;24442;-72
2022/11/12 05:31:59;;;;;;;5.85;1.38;;;;;;;3.07;100.00;97259.19;5100550;28;24450;-71
2022/11/12 05:34:25;;;;;;;4.10;1.52;;;;;;;2.95;100.00;97259.31;5097332;28;24441;-72
2022/11/12 05:36:52;;;;;;;7.03;1.83;;;;;;;2.90;100.00;97255.06;5098237;28;24434;-71
2022/11/12 05:39:18;;;;;;;8.02;1.98;;;;;;;2.94;100.00;97267.84;5106499;28;24445;-72
2022/11/12 05:41:45;;;;;;;7.32;1.65;;;;;;;2.83;100.00;97267.94;5101163;28;24422;-72
2022/11/12 05:44:13;;;;;;;5.50;1.48;;;;;;;2.77;100.00;97273.94;5105591;28;24429;-72
2022/11/12 05:46:39;;;;;;;2.97;1.45;;;;;;;2.78;100.00;97273.09;5101721;28;24454;-72
2022/11/12 05:49:06;;;;;;;3.90;1.42;;;;;;;2.75;100.00;97270.56;5096307;28;25006;-72
2022/11/12 05:51:32;;;;;;;4.00;1.77;;;;;;;2.78;100.00;97267.09;5092778;28;24992;-72
2022/11/12 05:53:59;;;;;;;4.53;1.30;;;;;;;2.78;100.00;97273.09;5095569;28;24441;-72
2022/11/12 05:56:26;;;;;;;8.45;1.58;;;;;;;2.80;100.00;97265.41;5091493;28;25216;-72
2022/11/12 05:58:52;;;;;;;2.47;1.40;;;;;;;2.78;100.00;97269.66;5098914;28;24940;-72
2022/11/12 06:01:20;;;;;;;3.00;1.38;;;;;;;2.77;100.00;97268.81;5100177;28;24436;-72
2022/11/12 06:03:47;;;;;;;3.78;1.58;;;;;;;2.79;100.00;97272.22;5097564;28;24434;-72
2022/11/12 06:06:14;;;;;;;5.00;1.60;;;;;;;2.74;100.00;97278.22;5096061;28;24425;-72
2022/11/12 06:08:40;;;;;;;3.13;1.90;;;;;;;2.80;100.00;97275.63;5096591;28;24439;-73
2022/11/12 06:11:07;;;;;;;8.05;2.10;;;;;;;2.78;100.00;97273.09;5102633;28;24438;-72
2022/11/12 06:13:33;;;;;;;13.13;2.50;;;;;;;2.80;100.00;97285.88;5096914;28;25011;-72
2022/11/12 06:16:00;;;;;;;11.90;2.30;;;;;;;2.78;100.00;97279.91;5098313;28;24433;-72
2022/11/12 06:18:28;;;;;;;8.18;2.08;;;;;;;2.73;100.00;97295.28;5100227;28;24782;-72
2022/11/12 06:23:35;;;;;;;3.28;2.78;;;;;;;2.82;100.00;97300.34;5086508;28;24441;-72
2022/11/12 06:26:01;;;;;;;9.93;2.33;;;;;;;2.90;100.00;97297.72;5101651;28;24429;-72
2022/11/12 06:28:28;;;;;;;6.85;2.10;;;;;;;2.91;100.00;97297.72;5091766;28;24429;-72
2022/11/12 06:30:55;;;;;;;4.60;2.63;;;;;;;2.90;100.00;97307.97;5100995;28;24438;-72
2022/11/12 06:33:22;;;;;;;5.50;2.47;;;;;;;2.83;100.00;97311.44;5097559;28;24812;-71
2022/11/12 06:35:56;;;;;;;6.97;2.60;;;;;;;2.78;100.00;97306.34;5102534;28;24441;-72
2022/11/12 06:38:23;;;;;;;6.68;2.50;;;;;;;2.77;100.00;97306.34;5098006;28;24464;-72
2022/11/12 06:40:50;;;;;;;8.07;2.00;;;;;;;2.48;100.00;97312.50;5101541;28;24438;-72
2022/11/12 06:43:17;;;;;;;17.63;1.95;;;;;;;2.20;100.00;97308.44;5096053;28;24432;-72
2022/11/12 06:45:43;;;;;;;8.50;1.80;;;;;;;2.15;100.00;97313.53;5096381;28;24453;-72
2022/11/12 06:48:10;;;;;;;5.93;1.30;;;;;;;2.22;100.00;97307.53;5098645;28;24555;-71
2022/11/12 06:50:36;;;;;;;13.40;1.50;;;;;;;2.10;100.00;97310.16;5097870;28;24452;-72
2022/11/12 06:53:04;;;;;;;5.95;1.30;;;;;;;1.93;100.00;97306.00;5101168;28;24453;-72
2022/11/12 06:55:31;;;;;;;8.15;1.23;;;;;;;1.85;100.00;97310.25;5097520;28;24429;-72
2022/11/12 06:57:57;;;;;;;5.50;1.40;;;;;;;1.94;100.00;97310.25;5086085;28;24438;-72
2022/11/12 07:00:24;;;;;;;3.85;1.27;;;;;;;1.99;100.00;97310.22;5103945;28;24441;-74
2022/11/12 07:02:50;;;;;;;37.15;12.68;;;;;;;1.91;100.00;97311.97;5095465;28;24437;-73
2022/11/12 07:05:17;;;;;;;35.08;5.80;;;;;;;1.87;100.00;97313.69;5083996;28;24434;-73
2022/11/12 07:07:43;;;;;;;8.60;3.05;;;;;;;2.04;100.00;97312.75;5099255;28;24440;-72
2022/11/12 07:10:11;;;;;;;43.38;3.70;;;;;;;2.09;100.00;97313.59;5102107;28;25052;-72
2022/11/12 07:12:38;;;;;;;47.55;3.28;;;;;;;2.14;100.00;97301.63;5096318;28;24455;-72
2022/11/12 07:15:05;;;;;;;61.35;3.40;;;;;;;2.13;100.00;97303.34;5093088;28;25003;-72
2022/11/12 07:17:31;;;;;;;59.88;3.20;;;;;;;2.11;100.00;97305.06;5090717;28;24434;-72
2022/11/12 07:19:59;;;;;;;56.10;4.07;;;;;;;2.13;100.00;97307.59;5088128;28;24430;-73
2022/11/12 07:22:26;;;;;;;46.90;3.47;;;;;;;2.11;100.00;97307.63;5088645;28;24437;-72
2022/11/12 07:24:52;;;;;;;3.88;1.60;;;;;;;2.17;100.00;97305.03;5089531;28;25051;-72
2022/11/12 07:27:20;;;;;;;23.77;2.40;;;;;;;2.29;100.00;97296.44;5095721;28;24438;-72
2022/11/12 07:29:47;;;;;;;14.02;2.50;;;;;;;2.48;100.00;97301.44;5094034;28;24449;-72
2022/11/12 07:32:13;;;;;;;33.92;3.40;;;;;;;2.56;100.00;97297.09;5096106;28;24461;-71
2022/11/12 07:34:40;;;;;;;32.83;3.30;;;;;;;2.63;100.00;97299.66;5097665;28;24456;-71
2022/11/12 07:37:07;;;;;;;27.73;2.30;;;;;;;2.73;100.00;97308.09;5094401;28;25205;-72
2022/11/12 07:39:33;;;;;;;24.25;3.03;;;;;;;2.83;100.00;97303.75;5102146;28;24437;-71
2022/11/12 07:42:00;;;;;;;26.15;3.47;;;;;;;2.83;100.00;97306.31;5103749;28;24425;-72
2022/11/12 07:44:28;;;;;;;25.25;3.15;;;;;;;2.84;100.00;97305.44;5109289;28;24791;-74
2022/11/12 07:46:54;;;;;;;16.00;1.80;;;;;;;2.74;100.00;97298.69;5105574;28;24441;-71
2022/11/12 07:49:21;;;;;;;21.30;1.70;;;;;;;2.83;100.00;97308.88;5104310;28;24445;-70
2022/11/12 07:51:47;;;;;;;13.10;1.63;;;;;;;2.83;100.00;97296.09;5103931;28;25009;-68
2022/11/12 07:54:14;;;;;;;20.88;1.90;;;;;;;2.87;100.00;97297.75;5108066;28;24438;-71
2022/11/12 07:56:40;;;;;;;17.77;2.03;;;;;;;2.92;100.00;97283.19;5093629;28;25002;-71
2022/11/12 07:59:07;;;;;;;9.25;2.72;;;;;;;3.03;100.00;97286.50;5104735;28;24438;-72
2022/11/12 08:01:37;;;;;;;10.70;2.47;;;;;;;3.20;100.00;97295.78;5103297;28;24838;-72
2022/11/12 08:04:06;;;;;;;2.50;2.20;;;;;;;3.28;100.00;97299.09;5103981;27;24437;-71
2022/11/12 08:06:33;;;;;;;20.08;3.40;;;;;;;3.09;100.00;97298.41;5095018;28;24819;-72
2022/11/12 08:09:01;;;;;;;4.13;3.33;;;;;;;3.32;100.00;97299.03;5102466;28;24422;-71
2022/11/12 08:11:28;;;;;;;9.20;3.13;;;;;;;3.27;100.00;97290.56;5095066;28;24433;-70
2022/11/12 08:13:55;;;;;;;14.57;3.13;;;;;;;3.33;100.00;97290.50;5099338;28;24996;-70
2022/11/12 08:16:22;;;;;;;4.47;3.10;;;;;;;3.68;100.00;97293.56;5094309;28;24430;-72
2022/11/12 08:18:50;;;;;;;4.70;3.45;;;;;;;3.93;100.00;97288.97;5099194;28;24471;-73
2022/11/12 08:21:17;;;;;;;5.95;3.90;;;;;;;4.10;100.00;97290.47;5087324;28;24425;-72
2022/11/12 08:23:44;;;;;;;4.07;3.65;;;;;;;4.09;100.00;97287.94;5107300;28;24456;-71
2022/11/12 08:26:13;;;;;;;8.90;3.83;;;;;;;4.13;100.00;97289.59;5098133;28;24464;-71
2022/11/12 08:28:40;;;;;;;5.57;4.18;;;;;;;4.40;100.00;97283.22;5100783;28;24438;-71
2022/11/12 08:31:09;;;;;;;6.00;4.35;;;;;;;4.55;100.00;97292.44;5099229;28;24520;-71
2022/11/12 08:33:36;;;;;;;5.90;4.85;;;;;;;4.73;100.00;97292.16;5102114;28;24453;-71
2022/11/12 08:36:04;;;;;;;9.23;6.32;;;;;;;4.93;100.00;97290.97;5097353;28;24432;-71
2022/11/12 08:38:31;;;;;;;9.43;6.97;;;;;;;4.90;100.00;97291.06;5095350;28;24528;-71
2022/11/12 08:41:00;;;;;;;10.25;7.80;;;;;;;4.94;100.00;97285.84;5094322;28;24439;-71
2022/11/12 08:43:26;;;;;;;10.80;6.10;;;;;;;5.06;100.00;97290.75;5107128;28;24456;-70
2022/11/12 08:45:53;;;;;;;5.63;4.50;;;;;;;5.06;100.00;97279.66;5101440;28;24444;-71
2022/11/12 08:48:20;;;;;;;9.07;4.03;;;;;;;5.20;100.00;97287.13;5089326;28;24487;-71
2022/11/12 08:50:46;;;;;;;4.70;2.85;;;;;;;5.14;100.00;97292.34;5093681;28;24458;-71
2022/11/12 08:53:14;;;;;;;4.43;2.67;;;;;;;5.14;100.00;97293.19;5093908;28;24840;-71
2022/11/12 08:55:40;;;;;;;5.55;2.67;;;;;;;5.20;100.00;97293.09;5101932;28;24429;-71
2022/11/12 08:58:09;;;;;;;3.30;2.55;;;;;;;5.27;100.00;97296.44;5100061;28;24430;-71
2022/11/12 09:00:38;;;;;;;5.45;2.50;;;;;;;5.19;100.00;97301.69;5102678;28;24801;-71
2022/11/12 09:03:06;;;;;;;5.47;2.90;;;;;;;5.24;100.00;97291.34;5100311;28;24434;-71
2022/11/12 09:05:34;;;;;;;3.47;2.75;;;;;;;5.30;100.00;97283.50;5101123;28;25243;-73
2022/11/12 09:08:03;;;;;;;5.93;2.65;;;;;;;5.54;100.00;97280.50;5098820;28;24433;-71
2022/11/12 09:10:31;;;;;;;3.95;2.65;;;;;;;5.56;100.00;97277.88;5083327;28;24434;-71
2022/11/12 09:12:58;;;;;;;6.38;3.03;;;;;;;5.58;100.00;97274.41;5088418;28;24463;-71
2022/11/12 09:15:26;;;;;;;3.80;2.58;;;;;;;5.56;100.00;97280.44;5103641;28;24430;-71
2022/11/12 09:17:55;;;;;;;4.25;3.10;;;;;;;5.56;100.00;97283.03;5094833;28;24440;-71
2022/11/12 09:20:22;;;;;;;4.97;2.60;;;;;;;5.67;100.00;97283.66;5103530;28;24438;-71
2022/11/12 09:22:48;;;;;;;4.28;2.42;;;;;;;5.79;100.00;97280.03;5094418;28;24435;-70
2022/11/12 09:25:15;;;;;;;3.97;2.70;;;;;;;5.90;100.00;97274.69;5103385;28;24437;-71
2022/11/12 09:27:43;;;;;;;4.23;2.60;;;;;;;6.08;100.00;97271.75;5094489;28;24576;-71
2022/11/12 09:30:10;;;;;;;4.07;2.78;;;;;;;6.22;100.00;97268.88;5099209;28;24437;-71
2022/11/12 09:32:37;;;;;;;3.33;2.60;;;;;;;6.51;100.00;97270.81;5098165;28;24450;-71
2022/11/12 09:35:04;;;;;;;3.47;2.58;;;;;;;6.53;100.00;97269.06;5101935;28;24434;-71
2022/11/12 09:37:30;;;;;;;7.15;3.13;;;;;;;6.57;100.00;97269.84;5095250;28;24434;-71
2022/11/12 09:39:57;;;;;;;6.32;3.42;;;;;;;6.74;100.00;97265.97;5097125;28;20823;-71
2022/11/12 09:42:23;;;;;;;6.32;2.85;;;;;;;6.92;100.00;97274.16;5099532;28;25017;-71
2022/11/12 09:44:57;;;;;;;4.85;2.53;;;;;;;6.89;100.00;97267.31;5091443;28;24423;-71
2022/11/12 09:47:27;;;;;;;4.47;2.80;;;;;;;7.19;100.00;97265.75;5096619;28;20655;-71
2022/11/12 09:50:01;;;;;;;3.80;3.00;;;;;;;7.49;100.00;97263.22;5097086;28;20778;-71
2022/11/12 09:52:29;;;;;;;7.28;3.50;;;;;;;7.42;100.00;97266.88;5095520;28;20680;-71
2022/11/12 09:55:06;;;;;;;7.15;3.38;;;;;;;7.50;100.00;97259.78;5102043;28;24430;-71
2022/11/12 09:57:34;;;;;;;6.53;4.07;;;;;;;7.67;100.00;97255.00;5100078;27;24876;-70
2022/11/12 10:00:03;;;;;;;6.40;3.92;;;;;;;8.05;100.00;97260.00;5101296;28;25047;-71
2022/11/12 10:02:37;;;;;;;6.00;3.33;;;;;;;8.32;100.00;97254.00;5092312;28;20760;-71
2022/11/12 10:05:17;;;;;;;8.60;5.93;;;;;;;8.28;100.00;97251.56;5104336;28;21283;-71
2022/11/12 10:07:57;;;;;;;5.97;4.30;;;;;;;8.40;100.00;97254.63;5102656;28;24441;-71
2022/11/12 10:10:35;;;;;;;3.78;2.40;;;;;;;8.44;100.00;97260.56;5095064;28;20655;-71
2022/11/12 10:13:17;;;;;;;3.35;2.53;;;;;;;8.64;100.00;97252.19;5096430;28;24456;-71
2022/11/12 10:19:08;;;;;;;3.67;2.33;;;;;;;8.71;100.00;97251.97;5087759;28;20814;-71
2022/11/12 10:21:41;;;;;;;2.65;2.15;;;;;;;8.80;100.00;97250.81;5102276;28;20803;-71
2022/11/12 10:24:10;;;;;;;7.13;3.72;;;;;;;8.82;100.00;97251.59;5106081;28;20760;-72
2022/11/12 10:26:39;;;;;;;4.40;2.38;;;;;;;8.85;100.00;97255.84;5093879;28;24437;-71
2022/11/12 10:29:14;;;;;;;3.38;2.45;;;;;;;8.88;100.00;97242.81;5096820;28;24437;-71
2022/11/12 10:31:42;;;;;;;4.30;2.73;;;;;;;8.98;100.00;97239.06;5103742;28;20768;-71
2022/11/12 10:34:19;;;;;;;4.35;2.53;;;;;;;9.09;100.00;97241.28;5105808;28;21177;-71
2022/11/12 10:36:50;;;;;;;3.40;2.20;;;;;;;9.29;100.00;97238.84;5099792;28;24521;-71
2022/11/12 10:39:34;;;;;;;5.40;2.15;;;;;;;9.53;100.00;97236.31;5097915;28;20812;-71
2022/11/12 10:42:06;;;;;;;3.40;2.33;;;;;;;9.60;100.00;97237.78;5098070;28;24438;-71
2022/11/12 10:44:33;;;;;;;3.85;2.40;;;;;;;9.81;100.00;97229.25;5096309;28;24521;-71
2022/11/12 10:47:26;;;;;;;2.45;2.25;;;;;;;9.69;100.00;97224.53;5106175;28;24440;-71
2022/11/12 10:50:15;;;;;;;2.40;2.20;;;;;;;9.91;100.00;97222.00;5093186;28;24819;-71
2022/11/12 10:52:54;;;;;;;5.00;2.53;;;;;;;10.03;100.00;97221.53;5094405;28;24441;-71
2022/11/12 10:55:22;;;;;;;3.50;2.30;;;;;;;10.18;100.00;97220.97;5095951;28;24434;-71
2022/11/12 10:58:04;;;;;;;2.93;2.33;;;;;;;10.65;100.00;97220.91;5091885;28;24430;-71
2022/11/12 11:00:31;;;;;;;6.57;2.33;;;;;;;10.64;100.00;97221.81;5086422;28;24461;-71
2022/11/12 11:03:01;;;;;;;4.03;2.47;;;;;;;10.58;100.00;97222.03;5088568;28;24486;-71
2022/11/12 11:05:32;;;;;;;3.03;2.33;;;;;;;10.64;100.00;97216.63;5080998;28;24995;-71
2022/11/12 11:07:58;;;;;;;5.10;2.50;;;;;;;10.76;100.00;97217.03;5090858;28;24494;-71
2022/11/12 11:10:28;;;;;;;3.58;2.42;;;;;;;10.74;100.00;97218.84;5097278;28;24434;-72
2022/11/12 11:13:18;;;;;;;4.75;2.50;;;;;;;10.80;100.00;97219.44;5100460;28;24461;-71
2022/11/12 11:15:58;;;;;;;3.55;2.25;;;;;;;10.73;100.00;97223.19;5110008;28;24429;-71
2022/11/12 11:18:26;;;;;;;4.35;2.33;;;;;;;10.78;100.00;97217.81;5102029;28;24425;-71
2022/11/12 11:21:03;;;;;;;5.13;2.20;;;;;;;10.83;100.00;97219.31;5100914;28;24443;-72
2022/11/12 11:23:37;;;;;;;4.10;2.40;;;;;;;10.88;100.00;97209.59;5099959;28;25021;-70
2022/11/12 11:26:16;;;;;;;2.38;2.17;;;;;;;10.94;100.00;97213.69;5100920;28;24440;-71
2022/11/12 11:28:49;;;;;;;4.03;2.47;;;;;;;10.93;100.00;97209.41;5102580;28;24444;-72
2022/11/12 11:31:22;;;;;;;3.60;2.67;;;;;;;10.82;100.00;97203.81;5109671;28;24445;-71
2022/11/12 11:33:57;;;;;;;4.75;2.90;;;;;;;10.74;100.00;97204.13;5106146;28;24546;-71
2022/11/12 11:36:31;;;;;;;3.60;2.55;;;;;;;10.73;100.00;97204.19;5096533;28;24795;-71
2022/11/12 11:39:03;;;;;;;4.18;2.78;;;;;;;10.71;100.00;97200.81;5108226;28;24445;-71
2022/11/12 11:41:52;;;;;;;3.40;2.60;;;;;;;10.64;100.00;97197.63;5100140;28;24992;-71
2022/11/12 11:44:31;;;;;;;3.63;2.67;;;;;;;10.69;100.00;97200.88;5104910;28;24437;-71
2022/11/12 11:47:09;;;;;;;5.18;3.00;;;;;;;10.75;100.00;97195.44;5089693;28;24445;-71
2022/11/12 11:49:51;;;;;;;3.22;2.53;;;;;;;10.76;100.00;97191.13;5094811;28;24440;-72
2022/11/12 11:52:41;;;;;;;4.25;2.90;;;;;;;10.77;100.00;97190.22;5091539;28;24434;-72
2022/11/12 11:55:19;;;;;;;4.68;3.00;;;;;;;10.82;100.00;97194.28;5102270;28;24434;-73
2022/11/12 11:57:56;;;;;;;4.57;3.13;;;;;;;10.79;100.00;97191.84;5103009;28;24430;-71
2022/11/12 12:00:24;;;;;;;5.73;3.23;;;;;;;10.78;100.00;97179.78;5078453;28;24531;-72